sensor_id;sensor_type;location;lat;lon;timestamp;P1;durP1;ratioP1;P2;durP2;ratioP2
9970;SDS011;5026;51.494;11.974;2023-05-10T00:01:36;8.27;;;4.50;;
9970;SDS011;5026;51.494;11.974;2023-05-10T00:04:03;6.20;;;4.53;;
9970;SDS011;5026;51.494;11.974;2023-05-10T00:06:30;7.37;;;4.27;;
9970;SDS011;5026;51.494;11.974;2023-05-10T00:08:57;5.57;;;4.27;;
9970;SDS011;5026;51.494;11.974;2023-05-10T00:11:24;6.83;;;4.20;;
9970;SDS011;5026;51.494;11.974;2023-05-10T00:13:51;6.67;;;3.97;;
9970;SDS011;5026;51.494;11.974;2023-05-10T00:16:18;5.80;;;4.43;;
9970;SDS011;5026;51.494;11.974;2023-05-10T00:18:46;5.77;;;4.23;;
9970;SDS011;5026;51.494;11.974;2023-05-10T00:21:14;5.33;;;3.97;;
9970;SDS011;5026;51.494;11.974;2023-05-10T00:23:41;5.27;;;4.30;;
9970;SDS011;5026;51.494;11.974;2023-05-10T00:26:08;5.40;;;4.40;;
9970;SDS011;5026;51.494;11.974;2023-05-10T00:28:35;6.57;;;4.43;;
9970;SDS011;5026;51.494;11.974;2023-05-10T00:31:02;5.60;;;4.30;;
9970;SDS011;5026;51.494;11.974;2023-05-10T00:33:29;4.93;;;4.30;;
9970;SDS011;5026;51.494;11.974;2023-05-10T00:35:57;6.00;;;4.43;;
9970;SDS011;5026;51.494;11.974;2023-05-10T00:38:25;5.93;;;4.40;;
9970;SDS011;5026;51.494;11.974;2023-05-10T00:40:52;7.53;;;4.57;;
9970;SDS011;5026;51.494;11.974;2023-05-10T00:43:18;7.40;;;4.50;;
9970;SDS011;5026;51.494;11.974;2023-05-10T00:45:46;8.97;;;4.43;;
9970;SDS011;5026;51.494;11.974;2023-05-10T00:48:13;4.83;;;4.33;;
9970;SDS011;5026;51.494;11.974;2023-05-10T00:50:40;6.07;;;4.67;;
9970;SDS011;5026;51.494;11.974;2023-05-10T00:53:09;5.47;;;4.50;;
9970;SDS011;5026;51.494;11.974;2023-05-10T00:55:36;4.83;;;4.33;;
9970;SDS011;5026;51.494;11.974;2023-05-10T00:58:03;5.50;;;4.33;;
9970;SDS011;5026;51.494;11.974;2023-05-10T01:00:31;6.50;;;4.47;;
9970;SDS011;5026;51.494;11.974;2023-05-10T01:02:59;5.37;;;4.57;;
9970;SDS011;5026;51.494;11.974;2023-05-10T01:05:26;6.77;;;4.77;;
9970;SDS011;5026;51.494;11.974;2023-05-10T01:07:53;6.23;;;4.70;;
9970;SDS011;5026;51.494;11.974;2023-05-10T01:10:21;5.67;;;4.13;;
9970;SDS011;5026;51.494;11.974;2023-05-10T01:12:49;4.30;;;3.87;;
9970;SDS011;5026;51.494;11.974;2023-05-10T01:15:17;6.67;;;4.43;;
9970;SDS011;5026;51.494;11.974;2023-05-10T01:17:44;6.53;;;4.13;;
9970;SDS011;5026;51.494;11.974;2023-05-10T01:20:13;6.80;;;4.10;;
9970;SDS011;5026;51.494;11.974;2023-05-10T01:22:50;7.27;;;4.03;;
9970;SDS011;5026;51.494;11.974;2023-05-10T01:25:52;5.57;;;4.27;;
9970;SDS011;5026;51.494;11.974;2023-05-10T01:29:05;6.43;;;4.40;;
9970;SDS011;5026;51.494;11.974;2023-05-10T01:34:56;8.00;;;4.40;;
9970;SDS011;5026;51.494;11.974;2023-05-10T01:37:29;8.53;;;4.73;;
9970;SDS011;5026;51.494;11.974;2023-05-10T01:40:03;5.63;;;4.40;;
9970;SDS011;5026;51.494;11.974;2023-05-10T01:42:39;5.20;;;4.70;;
9970;SDS011;5026;51.494;11.974;2023-05-10T01:45:13;6.37;;;5.17;;
9970;SDS011;5026;51.494;11.974;2023-05-10T01:47:48;7.87;;;4.50;;
9970;SDS011;5026;51.494;11.974;2023-05-10T01:50:30;7.53;;;4.57;;
9970;SDS011;5026;51.494;11.974;2023-05-10T01:52:58;8.00;;;4.87;;
9970;SDS011;5026;51.494;11.974;2023-05-10T01:55:29;7.80;;;5.40;;
9970;SDS011;5026;51.494;11.974;2023-05-10T01:58:00;6.80;;;5.07;;
9970;SDS011;5026;51.494;11.974;2023-05-10T02:00:33;5.97;;;4.67;;
9970;SDS011;5026;51.494;11.974;2023-05-10T02:03:03;7.07;;;4.53;;
9970;SDS011;5026;51.494;11.974;2023-05-10T02:05:32;6.90;;;5.10;;
9970;SDS011;5026;51.494;11.974;2023-05-10T02:08:01;7.47;;;5.10;;
9970;SDS011;5026;51.494;11.974;2023-05-10T02:10:32;6.03;;;4.83;;
9970;SDS011;5026;51.494;11.974;2023-05-10T02:12:59;6.50;;;5.10;;
9970;SDS011;5026;51.494;11.974;2023-05-10T02:15:28;6.20;;;4.70;;
9970;SDS011;5026;51.494;11.974;2023-05-10T02:17:56;5.60;;;4.80;;
9970;SDS011;5026;51.494;11.974;2023-05-10T02:20:26;5.83;;;4.80;;
9970;SDS011;5026;51.494;11.974;2023-05-10T02:22:54;7.97;;;5.10;;
9970;SDS011;5026;51.494;11.974;2023-05-10T02:25:23;8.10;;;5.33;;
9970;SDS011;5026;51.494;11.974;2023-05-10T02:27:52;7.27;;;5.03;;
9970;SDS011;5026;51.494;11.974;2023-05-10T02:30:21;7.53;;;4.87;;
9970;SDS011;5026;51.494;11.974;2023-05-10T02:32:49;6.07;;;5.13;;
9970;SDS011;5026;51.494;11.974;2023-05-10T02:35:17;10.03;;;5.60;;
9970;SDS011;5026;51.494;11.974;2023-05-10T02:37:46;6.87;;;5.43;;
9970;SDS011;5026;51.494;11.974;2023-05-10T02:40:14;8.03;;;5.40;;
9970;SDS011;5026;51.494;11.974;2023-05-10T02:42:43;7.07;;;5.53;;
9970;SDS011;5026;51.494;11.974;2023-05-10T02:45:15;7.33;;;5.50;;
9970;SDS011;5026;51.494;11.974;2023-05-10T02:47:46;11.00;;;5.63;;
9970;SDS011;5026;51.494;11.974;2023-05-10T02:50:13;8.97;;;5.83;;
9970;SDS011;5026;51.494;11.974;2023-05-10T02:52:42;8.07;;;5.87;;
9970;SDS011;5026;51.494;11.974;2023-05-10T02:55:13;7.90;;;5.90;;
9970;SDS011;5026;51.494;11.974;2023-05-10T02:57:50;10.50;;;6.70;;
9970;SDS011;5026;51.494;11.974;2023-05-10T03:00:20;9.10;;;6.03;;
9970;SDS011;5026;51.494;11.974;2023-05-10T03:02:48;9.43;;;6.10;;
9970;SDS011;5026;51.494;11.974;2023-05-10T03:05:14;7.53;;;6.00;;
9970;SDS011;5026;51.494;11.974;2023-05-10T03:07:42;9.73;;;6.40;;
9970;SDS011;5026;51.494;11.974;2023-05-10T03:10:09;10.20;;;6.57;;
9970;SDS011;5026;51.494;11.974;2023-05-10T03:12:52;11.37;;;6.50;;
9970;SDS011;5026;51.494;11.974;2023-05-10T03:15:31;10.43;;;6.43;;
9970;SDS011;5026;51.494;11.974;2023-05-10T03:18:04;7.97;;;5.30;;
9970;SDS011;5026;51.494;11.974;2023-05-10T03:20:36;7.57;;;5.77;;
9970;SDS011;5026;51.494;11.974;2023-05-10T03:23:07;10.17;;;5.80;;
9970;SDS011;5026;51.494;11.974;2023-05-10T03:25:39;6.20;;;5.57;;
9970;SDS011;5026;51.494;11.974;2023-05-10T03:28:10;9.33;;;6.13;;
9970;SDS011;5026;51.494;11.974;2023-05-10T03:30:38;6.53;;;5.43;;
9970;SDS011;5026;51.494;11.974;2023-05-10T03:33:06;11.87;;;6.47;;
9970;SDS011;5026;51.494;11.974;2023-05-10T03:35:33;7.87;;;5.77;;
9970;SDS011;5026;51.494;11.974;2023-05-10T03:38:00;10.30;;;5.50;;
9970;SDS011;5026;51.494;11.974;2023-05-10T03:40:27;9.37;;;5.80;;
9970;SDS011;5026;51.494;11.974;2023-05-10T03:42:57;10.73;;;5.43;;
9970;SDS011;5026;51.494;11.974;2023-05-10T03:45:25;8.67;;;5.70;;
9970;SDS011;5026;51.494;11.974;2023-05-10T03:47:53;10.87;;;6.00;;
9970;SDS011;5026;51.494;11.974;2023-05-10T03:50:20;8.83;;;5.53;;
9970;SDS011;5026;51.494;11.974;2023-05-10T03:52:47;7.53;;;5.57;;
9970;SDS011;5026;51.494;11.974;2023-05-10T03:55:15;7.23;;;5.30;;
9970;SDS011;5026;51.494;11.974;2023-05-10T03:57:42;7.73;;;5.40;;
9970;SDS011;5026;51.494;11.974;2023-05-10T04:00:09;7.17;;;5.93;;
9970;SDS011;5026;51.494;11.974;2023-05-10T04:02:38;10.87;;;5.07;;
9970;SDS011;5026;51.494;11.974;2023-05-10T04:05:05;10.27;;;5.47;;
9970;SDS011;5026;51.494;11.974;2023-05-10T04:07:33;10.13;;;5.40;;
9970;SDS011;5026;51.494;11.974;2023-05-10T04:10:00;13.10;;;6.13;;
9970;SDS011;5026;51.494;11.974;2023-05-10T04:12:27;9.67;;;4.80;;
9970;SDS011;5026;51.494;11.974;2023-05-10T04:14:53;6.37;;;5.17;;
9970;SDS011;5026;51.494;11.974;2023-05-10T04:17:20;6.40;;;5.20;;
9970;SDS011;5026;51.494;11.974;2023-05-10T04:19:49;6.77;;;5.13;;
9970;SDS011;5026;51.494;11.974;2023-05-10T04:22:18;6.47;;;5.50;;
9970;SDS011;5026;51.494;11.974;2023-05-10T04:24:45;9.20;;;5.30;;
9970;SDS011;5026;51.494;11.974;2023-05-10T04:27:12;7.30;;;5.43;;
9970;SDS011;5026;51.494;11.974;2023-05-10T04:29:39;7.37;;;5.23;;
9970;SDS011;5026;51.494;11.974;2023-05-10T04:32:06;8.70;;;4.87;;
9970;SDS011;5026;51.494;11.974;2023-05-10T04:34:35;7.37;;;4.93;;
9970;SDS011;5026;51.494;11.974;2023-05-10T04:37:04;6.80;;;5.20;;
9970;SDS011;5026;51.494;11.974;2023-05-10T04:39:32;7.17;;;5.50;;
9970;SDS011;5026;51.494;11.974;2023-05-10T04:42:00;7.63;;;4.70;;
9970;SDS011;5026;51.494;11.974;2023-05-10T04:44:27;5.80;;;5.00;;
9970;SDS011;5026;51.494;11.974;2023-05-10T04:46:54;6.13;;;4.57;;
9970;SDS011;5026;51.494;11.974;2023-05-10T04:49:21;6.53;;;5.17;;
9970;SDS011;5026;51.494;11.974;2023-05-10T04:51:48;5.07;;;4.40;;
9970;SDS011;5026;51.494;11.974;2023-05-10T04:54:17;7.43;;;4.63;;
9970;SDS011;5026;51.494;11.974;2023-05-10T04:56:44;9.73;;;6.03;;
9970;SDS011;5026;51.494;11.974;2023-05-10T04:59:11;8.77;;;4.70;;
9970;SDS011;5026;51.494;11.974;2023-05-10T05:01:38;6.93;;;4.30;;
9970;SDS011;5026;51.494;11.974;2023-05-10T05:04:05;5.30;;;4.20;;
9970;SDS011;5026;51.494;11.974;2023-05-10T05:06:32;7.03;;;4.80;;
9970;SDS011;5026;51.494;11.974;2023-05-10T05:08:59;6.93;;;4.18;;
9970;SDS011;5026;51.494;11.974;2023-05-10T05:11:28;6.97;;;4.50;;
9970;SDS011;5026;51.494;11.974;2023-05-10T05:13:55;8.20;;;4.40;;
9970;SDS011;5026;51.494;11.974;2023-05-10T05:16:23;6.78;;;4.32;;
9970;SDS011;5026;51.494;11.974;2023-05-10T05:18:50;4.47;;;3.85;;
9970;SDS011;5026;51.494;11.974;2023-05-10T05:21:18;6.32;;;4.15;;
9970;SDS011;5026;51.494;11.974;2023-05-10T05:23:46;4.85;;;4.35;;
9970;SDS011;5026;51.494;11.974;2023-05-10T05:26:13;5.35;;;4.25;;
9970;SDS011;5026;51.494;11.974;2023-05-10T05:28:41;5.55;;;4.38;;
9970;SDS011;5026;51.494;11.974;2023-05-10T05:31:08;5.25;;;3.88;;
9970;SDS011;5026;51.494;11.974;2023-05-10T05:33:35;7.78;;;4.18;;
9970;SDS011;5026;51.494;11.974;2023-05-10T05:36:03;9.25;;;4.50;;
9970;SDS011;5026;51.494;11.974;2023-05-10T05:38:31;10.77;;;4.28;;
9970;SDS011;5026;51.494;11.974;2023-05-10T05:40:58;5.63;;;4.32;;
9970;SDS011;5026;51.494;11.974;2023-05-10T05:43:25;6.20;;;4.55;;
9970;SDS011;5026;51.494;11.974;2023-05-10T05:45:53;5.22;;;3.88;;
9970;SDS011;5026;51.494;11.974;2023-05-10T05:48:22;4.30;;;3.90;;
9970;SDS011;5026;51.494;11.974;2023-05-10T05:50:49;6.43;;;3.88;;
9970;SDS011;5026;51.494;11.974;2023-05-10T05:53:16;5.38;;;3.60;;
9970;SDS011;5026;51.494;11.974;2023-05-10T05:55:50;6.38;;;3.92;;
9970;SDS011;5026;51.494;11.974;2023-05-10T05:58:18;7.78;;;4.28;;
9970;SDS011;5026;51.494;11.974;2023-05-10T06:00:45;5.60;;;3.90;;
9970;SDS011;5026;51.494;11.974;2023-05-10T06:03:13;7.57;;;4.00;;
9970;SDS011;5026;51.494;11.974;2023-05-10T06:05:40;8.88;;;4.15;;
9970;SDS011;5026;51.494;11.974;2023-05-10T06:08:07;5.07;;;3.30;;
9970;SDS011;5026;51.494;11.974;2023-05-10T06:10:34;4.35;;;3.60;;
9970;SDS011;5026;51.494;11.974;2023-05-10T06:13:02;5.35;;;3.97;;
9970;SDS011;5026;51.494;11.974;2023-05-10T06:15:29;7.40;;;4.13;;
9970;SDS011;5026;51.494;11.974;2023-05-10T06:17:56;8.02;;;3.70;;
9970;SDS011;5026;51.494;11.974;2023-05-10T06:20:24;7.15;;;3.70;;
9970;SDS011;5026;51.494;11.974;2023-05-10T06:22:51;10.85;;;4.43;;
9970;SDS011;5026;51.494;11.974;2023-05-10T06:25:18;6.35;;;3.90;;
9970;SDS011;5026;51.494;11.974;2023-05-10T06:27:45;5.40;;;3.60;;
9970;SDS011;5026;51.494;11.974;2023-05-10T06:30:12;6.90;;;3.50;;
9970;SDS011;5026;51.494;11.974;2023-05-10T06:32:40;7.93;;;3.80;;
9970;SDS011;5026;51.494;11.974;2023-05-10T06:35:09;6.78;;;3.90;;
9970;SDS011;5026;51.494;11.974;2023-05-10T06:37:37;6.88;;;3.80;;
9970;SDS011;5026;51.494;11.974;2023-05-10T06:40:05;7.93;;;3.75;;
9970;SDS011;5026;51.494;11.974;2023-05-10T06:42:33;6.70;;;3.38;;
9970;SDS011;5026;51.494;11.974;2023-05-10T06:45:00;4.88;;;3.50;;
9970;SDS011;5026;51.494;11.974;2023-05-10T06:47:27;4.85;;;3.88;;
9970;SDS011;5026;51.494;11.974;2023-05-10T06:49:54;6.28;;;3.90;;
9970;SDS011;5026;51.494;11.974;2023-05-10T06:52:20;6.82;;;3.65;;
9970;SDS011;5026;51.494;11.974;2023-05-10T06:54:49;9.77;;;4.10;;
9970;SDS011;5026;51.494;11.974;2023-05-10T06:57:16;9.57;;;3.80;;
9970;SDS011;5026;51.494;11.974;2023-05-10T06:59:44;8.25;;;4.30;;
9970;SDS011;5026;51.494;11.974;2023-05-10T07:02:11;6.32;;;3.85;;
9970;SDS011;5026;51.494;11.974;2023-05-10T07:04:39;4.93;;;3.50;;
9970;SDS011;5026;51.494;11.974;2023-05-10T07:07:06;8.40;;;4.25;;
9970;SDS011;5026;51.494;11.974;2023-05-10T07:09:33;6.45;;;3.90;;
9970;SDS011;5026;51.494;11.974;2023-05-10T07:12:02;7.63;;;4.22;;
9970;SDS011;5026;51.494;11.974;2023-05-10T07:14:29;8.90;;;3.92;;
9970;SDS011;5026;51.494;11.974;2023-05-10T07:16:56;6.47;;;3.55;;
9970;SDS011;5026;51.494;11.974;2023-05-10T07:19:23;6.75;;;4.00;;
9970;SDS011;5026;51.494;11.974;2023-05-10T07:21:50;10.82;;;4.15;;
9970;SDS011;5026;51.494;11.974;2023-05-10T07:24:17;5.20;;;4.03;;
9970;SDS011;5026;51.494;11.974;2023-05-10T07:26:44;5.88;;;4.05;;
9970;SDS011;5026;51.494;11.974;2023-05-10T07:29:12;8.40;;;4.10;;
9970;SDS011;5026;51.494;11.974;2023-05-10T07:31:39;7.05;;;4.07;;
9970;SDS011;5026;51.494;11.974;2023-05-10T07:34:06;7.40;;;3.72;;
9970;SDS011;5026;51.494;11.974;2023-05-10T07:36:33;6.20;;;3.92;;
9970;SDS011;5026;51.494;11.974;2023-05-10T07:39:00;9.30;;;4.15;;
9970;SDS011;5026;51.494;11.974;2023-05-10T07:41:28;8.27;;;4.25;;
9970;SDS011;5026;51.494;11.974;2023-05-10T07:43:55;10.65;;;4.13;;
9970;SDS011;5026;51.494;11.974;2023-05-10T07:46:23;5.47;;;4.47;;
9970;SDS011;5026;51.494;11.974;2023-05-10T07:48:50;6.38;;;4.03;;
9970;SDS011;5026;51.494;11.974;2023-05-10T07:51:17;6.38;;;3.78;;
9970;SDS011;5026;51.494;11.974;2023-05-10T07:53:44;6.28;;;4.07;;
9970;SDS011;5026;51.494;11.974;2023-05-10T07:56:20;5.82;;;4.38;;
9970;SDS011;5026;51.494;11.974;2023-05-10T07:58:50;7.15;;;4.15;;
9970;SDS011;5026;51.494;11.974;2023-05-10T08:01:17;4.90;;;4.30;;
9970;SDS011;5026;51.494;11.974;2023-05-10T08:03:46;5.53;;;4.60;;
9970;SDS011;5026;51.494;11.974;2023-05-10T08:06:13;8.27;;;4.15;;
9970;SDS011;5026;51.494;11.974;2023-05-10T08:08:40;6.70;;;4.30;;
9970;SDS011;5026;51.494;11.974;2023-05-10T08:11:07;5.68;;;4.28;;
9970;SDS011;5026;51.494;11.974;2023-05-10T08:13:34;4.97;;;4.30;;
9970;SDS011;5026;51.494;11.974;2023-05-10T08:16:01;5.40;;;4.60;;
9970;SDS011;5026;51.494;11.974;2023-05-10T08:18:28;11.73;;;5.43;;
9970;SDS011;5026;51.494;11.974;2023-05-10T08:20:57;5.28;;;4.75;;
9970;SDS011;5026;51.494;11.974;2023-05-10T08:23:23;5.60;;;5.05;;
9970;SDS011;5026;51.494;11.974;2023-05-10T08:25:51;6.85;;;4.95;;
9970;SDS011;5026;51.494;11.974;2023-05-10T08:28:17;6.35;;;5.00;;
9970;SDS011;5026;51.494;11.974;2023-05-10T08:30:45;8.77;;;5.82;;
9970;SDS011;5026;51.494;11.974;2023-05-10T08:33:11;8.48;;;5.40;;
9970;SDS011;5026;51.494;11.974;2023-05-10T08:35:39;6.10;;;4.97;;
9970;SDS011;5026;51.494;11.974;2023-05-10T08:38:07;8.93;;;5.35;;
9970;SDS011;5026;51.494;11.974;2023-05-10T08:40:35;9.70;;;5.50;;
9970;SDS011;5026;51.494;11.974;2023-05-10T08:43:05;10.80;;;5.90;;
9970;SDS011;5026;51.494;11.974;2023-05-10T08:45:36;12.27;;;5.03;;
9970;SDS011;5026;51.494;11.974;2023-05-10T08:48:04;11.77;;;5.60;;
9970;SDS011;5026;51.494;11.974;2023-05-10T08:50:33;7.68;;;6.15;;
9970;SDS011;5026;51.494;11.974;2023-05-10T08:53:02;10.48;;;5.95;;
9970;SDS011;5026;51.494;11.974;2023-05-10T08:55:33;7.78;;;5.63;;
9970;SDS011;5026;51.494;11.974;2023-05-10T08:58:01;7.65;;;6.35;;
9970;SDS011;5026;51.494;11.974;2023-05-10T09:00:29;9.68;;;6.50;;
9970;SDS011;5026;51.494;11.974;2023-05-10T09:02:56;10.60;;;6.10;;
9970;SDS011;5026;51.494;11.974;2023-05-10T09:05:24;7.50;;;5.72;;
9970;SDS011;5026;51.494;11.974;2023-05-10T09:07:51;8.43;;;6.10;;
9970;SDS011;5026;51.494;11.974;2023-05-10T09:10:18;6.75;;;5.88;;
9970;SDS011;5026;51.494;11.974;2023-05-10T09:12:47;8.68;;;6.05;;
9970;SDS011;5026;51.494;11.974;2023-05-10T09:15:15;8.68;;;6.10;;
9970;SDS011;5026;51.494;11.974;2023-05-10T09:17:44;9.35;;;6.40;;
9970;SDS011;5026;51.494;11.974;2023-05-10T09:20:12;8.85;;;6.57;;
9970;SDS011;5026;51.494;11.974;2023-05-10T09:22:38;9.20;;;6.80;;
9970;SDS011;5026;51.494;11.974;2023-05-10T09:25:06;10.20;;;6.75;;
9970;SDS011;5026;51.494;11.974;2023-05-10T09:27:34;12.35;;;6.18;;
9970;SDS011;5026;51.494;11.974;2023-05-10T09:30:03;12.88;;;6.13;;
9970;SDS011;5026;51.494;11.974;2023-05-10T09:32:38;10.35;;;6.88;;
9970;SDS011;5026;51.494;11.974;2023-05-10T09:35:07;8.93;;;6.47;;
9970;SDS011;5026;51.494;11.974;2023-05-10T09:37:35;12.27;;;6.20;;
9970;SDS011;5026;51.494;11.974;2023-05-10T09:40:06;8.65;;;6.60;;
9970;SDS011;5026;51.494;11.974;2023-05-10T09:42:33;9.25;;;6.72;;
9970;SDS011;5026;51.494;11.974;2023-05-10T09:45:03;9.55;;;6.88;;
9970;SDS011;5026;51.494;11.974;2023-05-10T09:47:31;12.10;;;6.53;;
9970;SDS011;5026;51.494;11.974;2023-05-10T09:49:59;8.93;;;6.70;;
9970;SDS011;5026;51.494;11.974;2023-05-10T09:52:29;9.20;;;6.63;;
9970;SDS011;5026;51.494;11.974;2023-05-10T09:54:56;9.27;;;6.28;;
9970;SDS011;5026;51.494;11.974;2023-05-10T09:57:23;7.72;;;6.50;;
9970;SDS011;5026;51.494;11.974;2023-05-10T09:59:51;10.52;;;7.22;;
9970;SDS011;5026;51.494;11.974;2023-05-10T10:02:20;9.95;;;6.80;;
9970;SDS011;5026;51.494;11.974;2023-05-10T10:04:54;8.40;;;6.40;;
9970;SDS011;5026;51.494;11.974;2023-05-10T10:07:22;10.02;;;6.38;;
9970;SDS011;5026;51.494;11.974;2023-05-10T10:09:50;8.43;;;6.75;;
9970;SDS011;5026;51.494;11.974;2023-05-10T10:12:17;8.27;;;6.15;;
9970;SDS011;5026;51.494;11.974;2023-05-10T10:14:45;9.00;;;6.40;;
9970;SDS011;5026;51.494;11.974;2023-05-10T10:17:14;7.15;;;6.07;;
9970;SDS011;5026;51.494;11.974;2023-05-10T10:19:43;6.63;;;5.70;;
9970;SDS011;5026;51.494;11.974;2023-05-10T10:22:11;7.90;;;5.78;;
9970;SDS011;5026;51.494;11.974;2023-05-10T10:24:38;7.97;;;5.22;;
9970;SDS011;5026;51.494;11.974;2023-05-10T10:27:14;6.22;;;5.28;;
9970;SDS011;5026;51.494;11.974;2023-05-10T10:29:48;4.65;;;4.25;;
9970;SDS011;5026;51.494;11.974;2023-05-10T10:32:24;4.70;;;4.20;;
9970;SDS011;5026;51.494;11.974;2023-05-10T10:34:57;5.20;;;4.18;;
9970;SDS011;5026;51.494;11.974;2023-05-10T10:43:21;7.40;;;6.28;;
9970;SDS011;5026;51.494;11.974;2023-05-10T10:48:37;9.77;;;7.25;;
9970;SDS011;5026;51.494;11.974;2023-05-10T10:51:06;9.10;;;7.38;;
9970;SDS011;5026;51.494;11.974;2023-05-10T10:53:33;10.52;;;7.70;;
9970;SDS011;5026;51.494;11.974;2023-05-10T10:56:06;7.63;;;6.40;;
9970;SDS011;5026;51.494;11.974;2023-05-10T10:58:35;3.90;;;3.53;;
9970;SDS011;5026;51.494;11.974;2023-05-10T11:01:13;3.22;;;2.92;;
9970;SDS011;5026;51.494;11.974;2023-05-10T11:03:55;2.42;;;2.22;;
9970;SDS011;5026;51.494;11.974;2023-05-10T11:06:45;3.25;;;2.70;;
9970;SDS011;5026;51.494;11.974;2023-05-10T11:09:12;1.83;;;1.73;;
9970;SDS011;5026;51.494;11.974;2023-05-10T11:11:50;2.60;;;2.03;;
9970;SDS011;5026;51.494;11.974;2023-05-10T11:14:20;1.80;;;1.70;;
9970;SDS011;5026;51.494;11.974;2023-05-10T11:16:48;1.90;;;1.80;;
9970;SDS011;5026;51.494;11.974;2023-05-10T11:19:15;2.15;;;2.00;;
9970;SDS011;5026;51.494;11.974;2023-05-10T11:21:46;2.92;;;1.90;;
9970;SDS011;5026;51.494;11.974;2023-05-10T11:24:14;2.25;;;2.05;;
9970;SDS011;5026;51.494;11.974;2023-05-10T11:26:42;1.73;;;1.63;;
9970;SDS011;5026;51.494;11.974;2023-05-10T11:29:09;2.67;;;2.10;;
9970;SDS011;5026;51.494;11.974;2023-05-10T11:31:41;2.22;;;2.00;;
9970;SDS011;5026;51.494;11.974;2023-05-10T11:34:10;4.25;;;2.20;;
9970;SDS011;5026;51.494;11.974;2023-05-10T11:36:37;2.25;;;2.08;;
9970;SDS011;5026;51.494;11.974;2023-05-10T11:39:06;1.90;;;1.80;;
9970;SDS011;5026;51.494;11.974;2023-05-10T11:41:32;2.28;;;2.17;;
9970;SDS011;5026;51.494;11.974;2023-05-10T11:44:00;2.38;;;1.80;;
9970;SDS011;5026;51.494;11.974;2023-05-10T11:46:28;1.83;;;1.73;;
9970;SDS011;5026;51.494;11.974;2023-05-10T11:48:55;1.45;;;1.35;;
9970;SDS011;5026;51.494;11.974;2023-05-10T11:51:26;2.15;;;2.05;;
9970;SDS011;5026;51.494;11.974;2023-05-10T11:53:54;1.95;;;1.60;;
9970;SDS011;5026;51.494;11.974;2023-05-10T11:56:23;2.08;;;1.63;;
9970;SDS011;5026;51.494;11.974;2023-05-10T11:58:52;1.77;;;1.65;;
9970;SDS011;5026;51.494;11.974;2023-05-10T12:01:20;4.20;;;1.40;;
9970;SDS011;5026;51.494;11.974;2023-05-10T12:03:48;1.60;;;1.50;;
9970;SDS011;5026;51.494;11.974;2023-05-10T12:06:15;1.77;;;1.67;;
9970;SDS011;5026;51.494;11.974;2023-05-10T12:08:44;2.15;;;1.40;;
9970;SDS011;5026;51.494;11.974;2023-05-10T12:11:12;2.67;;;1.48;;
9970;SDS011;5026;51.494;11.974;2023-05-10T12:13:42;1.55;;;1.45;;
9970;SDS011;5026;51.494;11.974;2023-05-10T12:16:15;1.50;;;1.40;;
9970;SDS011;5026;51.494;11.974;2023-05-10T12:18:43;1.30;;;1.20;;
9970;SDS011;5026;51.494;11.974;2023-05-10T12:21:11;1.77;;;1.67;;
9970;SDS011;5026;51.494;11.974;2023-05-10T12:23:38;1.73;;;1.63;;
9970;SDS011;5026;51.494;11.974;2023-05-10T12:26:05;1.42;;;1.33;;
9970;SDS011;5026;51.494;11.974;2023-05-10T12:28:34;1.13;;;0.95;;
9970;SDS011;5026;51.494;11.974;2023-05-10T12:31:05;1.05;;;0.95;;
9970;SDS011;5026;51.494;11.974;2023-05-10T12:33:35;1.17;;;1.10;;
9970;SDS011;5026;51.494;11.974;2023-05-10T12:36:04;0.80;;;0.80;;
9970;SDS011;5026;51.494;11.974;2023-05-10T12:38:32;3.05;;;1.23;;
9970;SDS011;5026;51.494;11.974;2023-05-10T12:41:01;3.08;;;2.70;;
9970;SDS011;5026;51.494;11.974;2023-05-10T12:43:29;1.80;;;1.55;;
9970;SDS011;5026;51.494;11.974;2023-05-10T12:45:57;1.23;;;1.23;;
9970;SDS011;5026;51.494;11.974;2023-05-10T12:48:25;1.45;;;1.35;;
9970;SDS011;5026;51.494;11.974;2023-05-10T12:50:53;4.30;;;1.70;;
9970;SDS011;5026;51.494;11.974;2023-05-10T12:53:20;1.85;;;1.75;;
9970;SDS011;5026;51.494;11.974;2023-05-10T12:55:47;1.50;;;1.40;;
9970;SDS011;5026;51.494;11.974;2023-05-10T12:58:14;1.95;;;1.80;;
9970;SDS011;5026;51.494;11.974;2023-05-10T13:00:41;1.95;;;1.85;;
9970;SDS011;5026;51.494;11.974;2023-05-10T13:03:08;2.80;;;2.60;;
9970;SDS011;5026;51.494;11.974;2023-05-10T13:05:37;2.55;;;2.35;;
9970;SDS011;5026;51.494;11.974;2023-05-10T13:08:04;2.00;;;1.90;;
9970;SDS011;5026;51.494;11.974;2023-05-10T13:10:31;2.90;;;2.50;;
9970;SDS011;5026;51.494;11.974;2023-05-10T13:12:58;5.05;;;4.03;;
9970;SDS011;5026;51.494;11.974;2023-05-10T13:15:25;5.75;;;4.43;;
9970;SDS011;5026;51.494;11.974;2023-05-10T13:17:53;6.30;;;5.32;;
9970;SDS011;5026;51.494;11.974;2023-05-10T13:20:20;6.32;;;5.72;;
9970;SDS011;5026;51.494;11.974;2023-05-10T13:22:49;6.50;;;5.82;;
9970;SDS011;5026;51.494;11.974;2023-05-10T13:25:16;6.05;;;5.50;;
9970;SDS011;5026;51.494;11.974;2023-05-10T13:27:43;6.30;;;5.57;;
9970;SDS011;5026;51.494;11.974;2023-05-10T13:30:12;5.78;;;5.18;;
9970;SDS011;5026;51.494;11.974;2023-05-10T13:32:39;4.22;;;3.72;;
9970;SDS011;5026;51.494;11.974;2023-05-10T13:35:07;4.38;;;3.97;;
9970;SDS011;5026;51.494;11.974;2023-05-10T13:37:34;4.68;;;3.67;;
9970;SDS011;5026;51.494;11.974;2023-05-10T13:40:05;4.20;;;3.80;;
9970;SDS011;5026;51.494;11.974;2023-05-10T13:42:34;3.85;;;3.55;;
9970;SDS011;5026;51.494;11.974;2023-05-10T13:45:01;3.33;;;3.03;;
9970;SDS011;5026;51.494;11.974;2023-05-10T13:47:29;3.90;;;3.03;;
9970;SDS011;5026;51.494;11.974;2023-05-10T13:49:56;3.90;;;3.20;;
9970;SDS011;5026;51.494;11.974;2023-05-10T13:52:26;3.80;;;3.50;;
9970;SDS011;5026;51.494;11.974;2023-05-10T13:54:56;3.53;;;3.20;;
9970;SDS011;5026;51.494;11.974;2023-05-10T13:57:26;3.17;;;2.88;;
9970;SDS011;5026;51.494;11.974;2023-05-10T13:59:55;3.38;;;3.08;;
9970;SDS011;5026;51.494;11.974;2023-05-10T14:02:22;3.30;;;3.00;;
9970;SDS011;5026;51.494;11.974;2023-05-10T14:04:50;3.45;;;2.80;;
9970;SDS011;5026;51.494;11.974;2023-05-10T14:07:17;3.58;;;3.15;;
9970;SDS011;5026;51.494;11.974;2023-05-10T14:09:44;3.53;;;3.22;;
9970;SDS011;5026;51.494;11.974;2023-05-10T14:12:12;4.72;;;3.20;;
9970;SDS011;5026;51.494;11.974;2023-05-10T14:14:40;3.30;;;2.92;;
9970;SDS011;5026;51.494;11.974;2023-05-10T14:17:08;3.90;;;3.00;;
9970;SDS011;5026;51.494;11.974;2023-05-10T14:19:35;3.20;;;2.90;;
9970;SDS011;5026;51.494;11.974;2023-05-10T14:22:03;2.78;;;2.10;;
9970;SDS011;5026;51.494;11.974;2023-05-10T14:24:32;3.88;;;2.85;;
9970;SDS011;5026;51.494;11.974;2023-05-10T14:27:01;2.83;;;2.58;;
9970;SDS011;5026;51.494;11.974;2023-05-10T14:29:29;2.50;;;2.30;;
9970;SDS011;5026;51.494;11.974;2023-05-10T14:32:00;2.55;;;2.35;;
9970;SDS011;5026;51.494;11.974;2023-05-10T14:34:27;3.00;;;2.70;;
9970;SDS011;5026;51.494;11.974;2023-05-10T14:36:54;2.30;;;2.13;;
9970;SDS011;5026;51.494;11.974;2023-05-10T14:39:21;3.35;;;2.53;;
9970;SDS011;5026;51.494;11.974;2023-05-10T14:41:48;3.97;;;2.08;;
9970;SDS011;5026;51.494;11.974;2023-05-10T14:44:16;2.70;;;2.50;;
9970;SDS011;5026;51.494;11.974;2023-05-10T14:46:44;2.42;;;2.22;;
9970;SDS011;5026;51.494;11.974;2023-05-10T14:49:14;3.30;;;3.00;;
9970;SDS011;5026;51.494;11.974;2023-05-10T14:51:42;2.90;;;2.60;;
9970;SDS011;5026;51.494;11.974;2023-05-10T14:54:10;2.80;;;2.60;;
9970;SDS011;5026;51.494;11.974;2023-05-10T14:56:37;2.72;;;2.53;;
9970;SDS011;5026;51.494;11.974;2023-05-10T14:59:06;3.13;;;2.38;;
9970;SDS011;5026;51.494;11.974;2023-05-10T15:01:34;3.05;;;1.85;;
9970;SDS011;5026;51.494;11.974;2023-05-10T15:04:02;2.35;;;1.80;;
9970;SDS011;5026;51.494;11.974;2023-05-10T15:06:31;1.92;;;1.80;;
9970;SDS011;5026;51.494;11.974;2023-05-10T15:09:00;1.90;;;1.80;;
9970;SDS011;5026;51.494;11.974;2023-05-10T15:11:28;1.63;;;1.52;;
9970;SDS011;5026;51.494;11.974;2023-05-10T15:13:55;1.77;;;1.60;;
9970;SDS011;5026;51.494;11.974;2023-05-10T15:16:22;1.88;;;1.77;;
9970;SDS011;5026;51.494;11.974;2023-05-10T15:18:50;2.08;;;1.98;;
9970;SDS011;5026;51.494;11.974;2023-05-10T15:21:17;2.38;;;2.17;;